Nearby METAR Reports

 

CXKE - Kemptville, Ontario, Canada
Distance from station: ESE 39km
Updated: 17/11/2018 17:00

 Wind from NW
Wind: NW 17 km/h
Temperature: -1°C
Wind Chill: -6°C
Dew Point: -7°C
Humidity: 64%
2018/11/17 22:00 CXKE 172200Z AUTO 31009KT M01/M07 RMK AO1 SOG 10 3029 SLP215 T10051067
CYOW - Ottawa Intl, Ontario, Canada
Distance from station: NE 43km
Updated: 17/11/2018 17:00
Few Clouds
Few Clouds
 Wind from WNW
Wind: WNW 26 km/h
Temperature: -2°C
Wind Chill: -9°C
Dew Point: -7°C
Humidity: 69%
Barometer: 1021 hPa
Clouds: Few Clouds
Visibility: 24 km
Cloud details: Few Clouds 914 m
2018/11/17 22:00 CYOW 172200Z 30014KT 15SM FEW030 M02/M07 A3015 RMK SC2 SLP219
 
CYND - Gatineau Airport, Quebec, Canada
Distance from station: NE 64km
Updated: 17/11/2018 17:00
Few Clouds
Few Clouds
 Wind from W
Wind: W 15 km/h
Temperature: -3°C
Wind Chill: -8°C
Dew Point: -7°C
Humidity: 74%
Barometer: 1021.3 hPa
Clouds: Few Clouds
Visibility: 24 km
Cloud details: Few Clouds 945 m
2018/11/17 22:00 CYND 172200Z 28008KT 15SM FEW031 M03/M07 A3016 RMK SC2 SLP219
CYGK - Kingston, Ontario, CA
Distance from station: S 80km
Updated: 17/11/2018 17:00
Partly Cloudy
Partly Cloudy
 Wind from WNW
Wind: WNW 17 km/h
Temperature: 1°C
Wind Chill: -3°C
Dew Point: -5°C
Humidity: 65%
Barometer: 1022 hPa
Clouds: Partly Cloudy
Visibility: 24 km
Cloud details: Few Clouds 975 m
Partly Cloudy 1676 m
2018/11/17 22:00 CYGK 172200Z 29009KT 15SM FEW032 SCT055 01/M05 A3018 RMK CU1SC3 SLP224